Fairplay, Colorado
Current Conditions -  °F | °C
As of 6:53 PM on Saturday 25 Oct 2014 (Local Time) from KLXV Reporting Station
Clear Clear  
Wind Chill: 44°   Ceiling: Unl
Heat Index: 47°   Visibility: 10mi
Dew Point: 11°   Wind: 6mph
Humidity: 23%   Direction: 40°NE
Pressure: 30.36"   Gusts: NA
Location:  39.22°N, 106°W
Report Text: KLXV 260053Z AUTO 04005KT 10SM CLR 08/M12 A3036 RMK AO2 SLP201 T00831117
Loading
Personal Weather Stations






























Interactive Weather Map
Tropical Storm Tracking
New forecast layout! Learn more

10-Day Weather Forecast

Advertisements
Track Severe Weather on mobile